createdAt,value
2023-02-26T00:01:00.087Z,2.40
2023-02-26T00:03:43.657Z,3.30
2023-02-26T00:06:17.132Z,2.60
2023-02-26T00:08:51.090Z,2.40
2023-02-26T00:11:26.077Z,2.50
2023-02-26T00:14:00.715Z,2.60
2023-02-26T00:16:37.328Z,2.50
2023-02-26T00:19:13.540Z,2.50
2023-02-26T00:21:48.416Z,2.30
2023-02-26T00:24:22.137Z,2.40
2023-02-26T00:26:55.936Z,2.70
2023-02-26T00:29:30.570Z,2.70
2023-02-26T00:32:04.995Z,2.80
2023-02-26T00:34:42.588Z,2.20
2023-02-26T00:37:30.255Z,2.20
2023-02-26T00:40:18.118Z,2.00
2023-02-26T00:42:53.217Z,2.20
2023-02-26T00:45:27.984Z,2.00
2023-02-26T00:48:17.337Z,2.10
2023-02-26T00:50:58.899Z,2.00
2023-02-26T00:53:37.810Z,1.80
2023-02-26T00:56:11.564Z,2.10
2023-02-26T00:58:45.079Z,1.60
2023-02-26T01:01:19.242Z,2.00
2023-02-26T01:03:53.986Z,2.10
2023-02-26T01:06:30.364Z,4.40
2023-02-26T01:09:10.608Z,3.40
2023-02-26T01:11:45.329Z,2.70
2023-02-26T01:14:20.051Z,2.70
2023-02-26T01:16:59.904Z,3.00
2023-02-26T01:19:42.080Z,5.40
2023-02-26T01:22:21.428Z,2.10
2023-02-26T01:25:01.599Z,4.20
2023-02-26T01:27:36.340Z,2.60
2023-02-26T01:30:12.355Z,2.30
2023-02-26T01:32:50.645Z,2.60
2023-02-26T01:35:41.579Z,2.10
2023-02-26T01:38:35.386Z,3.50
2023-02-26T01:41:31.100Z,2.50
2023-02-26T01:44:21.577Z,3.10
2023-02-26T01:47:11.506Z,2.60
2023-02-26T01:49:47.867Z,2.20
2023-02-26T01:53:06.655Z,3.20
2023-02-26T01:55:43.078Z,3.10
2023-02-26T01:58:17.472Z,2.20
2023-02-26T02:00:52.491Z,2.60
2023-02-26T02:03:27.904Z,4.10
2023-02-26T02:06:05.787Z,3.00
2023-02-26T02:08:40.011Z,2.70
2023-02-26T02:11:15.342Z,5.20
2023-02-26T02:14:03.055Z,3.30
2023-02-26T02:16:44.410Z,4.20
2023-02-26T02:19:36.168Z,2.50
2023-02-26T02:22:36.495Z,3.70
2023-02-26T02:25:31.440Z,3.00
2023-02-26T02:28:18.088Z,3.30
2023-02-26T02:31:03.787Z,3.00
2023-02-26T02:33:44.169Z,3.40
2023-02-26T02:36:25.791Z,4.00
2023-02-26T02:39:06.828Z,3.20
2023-02-26T02:41:46.060Z,2.90
2023-02-26T02:44:23.437Z,2.70
2023-02-26T02:46:59.771Z,2.90
2023-02-26T02:49:38.247Z,2.90
2023-02-26T02:52:19.897Z,2.40
2023-02-26T02:55:00.656Z,2.80
2023-02-26T02:57:39.334Z,2.60
2023-02-26T03:00:19.994Z,3.70
2023-02-26T03:03:00.252Z,3.00
2023-02-26T03:05:34.467Z,3.20
2023-02-26T03:08:12.604Z,3.20
2023-02-26T03:10:46.947Z,3.40
2023-02-26T03:13:22.417Z,2.70
2023-02-26T03:16:10.796Z,2.60
2023-02-26T03:19:00.318Z,2.30
2023-02-26T03:21:56.041Z,2.60
2023-02-26T03:24:57.565Z,3.10
2023-02-26T03:27:37.503Z,4.10
2023-02-26T03:30:18.085Z,2.70
2023-02-26T03:33:00.478Z,2.90
2023-02-26T03:35:45.004Z,2.40
2023-02-26T03:38:25.497Z,3.30
2023-02-26T03:41:05.202Z,2.50
2023-02-26T03:43:43.836Z,3.40
2023-02-26T03:46:23.195Z,3.10
2023-02-26T03:49:00.187Z,3.10
2023-02-26T03:51:35.665Z,2.70
2023-02-26T03:54:48.598Z,3.20
2023-02-26T03:57:42.057Z,3.10
2023-02-26T04:00:34.150Z,2.60
2023-02-26T04:03:15.444Z,2.60
2023-02-26T04:05:52.433Z,2.20
2023-02-26T04:08:27.374Z,2.50
2023-02-26T04:11:08.544Z,2.80
2023-02-26T04:13:42.600Z,3.00
2023-02-26T04:16:17.028Z,3.30
2023-02-26T04:18:50.741Z,3.00
2023-02-26T04:21:25.528Z,2.90
2023-02-26T04:23:59.279Z,2.90
2023-02-26T04:26:33.067Z,2.90
2023-02-26T04:29:06.782Z,2.70
2023-02-26T04:31:40.441Z,2.60
2023-02-26T04:34:13.624Z,2.50
2023-02-26T04:36:47.435Z,2.80
2023-02-26T04:39:21.391Z,2.90
2023-02-26T04:41:55.103Z,2.90
2023-02-26T04:44:28.648Z,3.10
2023-02-26T04:47:02.790Z,2.90
2023-02-26T04:49:37.812Z,3.10
2023-02-26T04:52:11.390Z,3.30
2023-02-26T04:54:45.231Z,2.90
2023-02-26T04:57:21.425Z,3.40
2023-02-26T04:59:54.861Z,2.80
2023-02-26T05:02:32.992Z,2.90
2023-02-26T05:05:07.576Z,3.10
2023-02-26T05:07:41.025Z,3.00
2023-02-26T05:10:15.520Z,2.80
2023-02-26T05:12:48.777Z,3.00
2023-02-26T05:15:23.203Z,2.70
2023-02-26T05:17:56.600Z,2.70
2023-02-26T05:20:30.363Z,2.70
2023-02-26T05:23:05.321Z,2.20
2023-02-26T05:25:38.878Z,2.20
2023-02-26T05:28:13.046Z,1.90
2023-02-26T05:30:46.724Z,2.00
2023-02-26T05:33:20.711Z,2.00
2023-02-26T05:35:54.117Z,2.20
2023-02-26T05:38:27.939Z,2.30
2023-02-26T05:41:03.188Z,3.00
2023-02-26T05:43:36.737Z,1.90
2023-02-26T05:46:10.649Z,2.30
2023-02-26T05:48:45.907Z,2.00
2023-02-26T05:51:19.807Z,1.60
2023-02-26T05:53:53.552Z,2.00
2023-02-26T05:56:27.424Z,1.70
2023-02-26T05:59:01.677Z,1.50
2023-02-26T06:01:37.579Z,1.40
2023-02-26T06:04:11.428Z,1.30
2023-02-26T06:06:44.925Z,1.40
2023-02-26T06:09:18.772Z,1.20
2023-02-26T06:11:52.624Z,1.30
2023-02-26T06:14:26.522Z,1.20
2023-02-26T06:16:59.983Z,1.00
2023-02-26T06:19:33.401Z,1.70
2023-02-26T06:22:07.286Z,1.00
2023-02-26T06:24:41.033Z,1.90
2023-02-26T06:27:14.744Z,1.20
2023-02-26T06:29:48.633Z,1.20
2023-02-26T06:32:22.077Z,1.10
2023-02-26T06:34:56.459Z,1.40
2023-02-26T06:37:30.906Z,1.40
2023-02-26T06:40:05.175Z,1.60
2023-02-26T06:42:38.835Z,2.10
2023-02-26T06:45:13.641Z,1.70
2023-02-26T06:47:47.077Z,1.40
2023-02-26T06:50:22.152Z,1.30
2023-02-26T06:52:56.040Z,1.40
2023-02-26T06:55:29.869Z,1.50
2023-02-26T06:58:03.789Z,1.50
2023-02-26T07:00:38.281Z,1.80
2023-02-26T07:03:15.008Z,1.60
2023-02-26T07:05:48.409Z,1.20
2023-02-26T07:08:22.201Z,1.30
2023-02-26T07:10:56.221Z,1.50
2023-02-26T07:13:30.206Z,1.20
2023-02-26T07:16:03.888Z,1.60
2023-02-26T07:18:38.015Z,1.60
2023-02-26T07:21:11.763Z,1.40
2023-02-26T07:23:45.437Z,1.60
2023-02-26T07:26:19.355Z,1.50
2023-02-26T07:28:52.846Z,1.80
2023-02-26T07:31:27.028Z,1.70
2023-02-26T07:34:00.903Z,1.80
2023-02-26T07:36:34.606Z,1.70
2023-02-26T07:39:08.372Z,1.50
2023-02-26T07:41:42.430Z,2.10
2023-02-26T07:44:21.465Z,1.90
2023-02-26T07:46:55.061Z,1.80
2023-02-26T07:49:29.023Z,1.30
2023-02-26T07:52:02.709Z,1.70
2023-02-26T07:54:36.716Z,2.80
2023-02-26T07:57:10.608Z,6.40
2023-02-26T07:59:44.151Z,9.40
2023-02-26T08:02:19.152Z,5.00
2023-02-26T08:04:53.193Z,4.10
2023-02-26T08:07:27.018Z,2.50
2023-02-26T08:10:00.759Z,4.10
2023-02-26T08:12:34.781Z,3.40
2023-02-26T08:15:09.898Z,3.20
2023-02-26T08:17:43.633Z,2.70
2023-02-26T08:20:17.795Z,2.90
2023-02-26T08:22:52.444Z,2.20
2023-02-26T08:25:26.043Z,2.20
2023-02-26T08:27:59.418Z,2.00
2023-02-26T08:30:33.336Z,2.00
2023-02-26T08:33:07.277Z,2.50
2023-02-26T08:35:40.886Z,1.70
2023-02-26T08:38:14.551Z,1.90
2023-02-26T08:40:50.403Z,1.60
2023-02-26T08:43:24.971Z,2.30
2023-02-26T08:46:00.362Z,2.50
2023-02-26T08:48:33.796Z,2.30
2023-02-26T08:51:08.122Z,1.70
2023-02-26T08:53:41.935Z,1.50
2023-02-26T08:56:15.807Z,1.30
2023-02-26T08:58:49.491Z,1.10
2023-02-26T09:01:23.452Z,1.10
2023-02-26T09:03:57.483Z,1.30
2023-02-26T09:06:31.731Z,1.00
2023-02-26T09:09:05.162Z,1.20
2023-02-26T09:11:38.853Z,1.40
2023-02-26T09:14:12.495Z,1.80
2023-02-26T09:16:47.156Z,1.30
2023-02-26T09:19:23.795Z,1.30
2023-02-26T09:21:58.407Z,1.30
2023-02-26T09:24:36.094Z,1.30
2023-02-26T09:27:09.836Z,1.50
2023-02-26T09:29:43.783Z,1.70
2023-02-26T09:32:17.836Z,1.50
2023-02-26T09:34:51.509Z,2.70
2023-02-26T09:37:25.640Z,2.20
2023-02-26T09:39:59.870Z,1.60
2023-02-26T09:42:54.424Z,1.50
2023-02-26T09:45:35.062Z,1.30
2023-02-26T09:48:14.095Z,2.30
2023-02-26T09:50:51.600Z,3.10
2023-02-26T09:53:28.365Z,3.00
2023-02-26T09:56:08.772Z,2.40
2023-02-26T09:58:43.531Z,4.20
2023-02-26T10:01:23.205Z,4.00
2023-02-26T10:04:09.028Z,2.00
2023-02-26T10:07:00.006Z,5.20
2023-02-26T10:09:50.138Z,3.10
2023-02-26T10:12:26.569Z,2.40
2023-02-26T10:15:04.489Z,2.40
2023-02-26T10:17:42.565Z,2.80
2023-02-26T10:20:23.091Z,3.00
2023-02-26T10:23:04.032Z,3.00
2023-02-26T10:25:42.996Z,3.30
2023-02-26T10:28:41.366Z,4.10
2023-02-26T10:31:20.594Z,3.50
2023-02-26T10:34:09.478Z,2.70
2023-02-26T10:36:51.421Z,3.00
2023-02-26T10:39:34.225Z,2.70
2023-02-26T10:42:19.365Z,2.90
2023-02-26T10:45:08.371Z,2.40
2023-02-26T10:47:48.438Z,3.60
2023-02-26T10:50:25.235Z,3.00
2023-02-26T10:53:01.138Z,3.40
2023-02-26T10:55:39.621Z,3.00
2023-02-26T10:58:16.376Z,5.90
2023-02-26T11:00:54.143Z,6.80
2023-02-26T11:03:36.026Z,2.90
2023-02-26T11:06:22.001Z,3.10
2023-02-26T11:08:59.549Z,3.00
2023-02-26T11:11:47.664Z,3.40
2023-02-26T11:14:22.390Z,2.40
2023-02-26T11:17:00.547Z,2.90
2023-02-26T11:19:38.586Z,2.50
2023-02-26T11:22:17.296Z,7.30
2023-02-26T11:27:27.993Z,3.20
2023-02-26T11:30:07.475Z,2.90
2023-02-26T11:32:42.339Z,2.20
2023-02-26T11:35:20.847Z,2.00
2023-02-26T11:38:00.272Z,1.30
2023-02-26T11:40:41.169Z,2.20
2023-02-26T11:43:19.865Z,1.80
2023-02-26T11:48:37.638Z,1.60
2023-02-26T11:51:16.789Z,1.80
2023-02-26T11:53:56.600Z,1.70
2023-02-26T11:56:40.710Z,1.80
2023-02-26T11:59:22.924Z,2.40
2023-02-26T12:01:57.607Z,2.80
2023-02-26T12:04:33.389Z,15.50
2023-02-26T12:07:14.159Z,4.50
2023-02-26T12:09:50.167Z,2.60
2023-02-26T12:12:47.422Z,3.70
2023-02-26T12:15:30.046Z,2.40
2023-02-26T12:18:28.798Z,6.90
2023-02-26T12:21:17.005Z,2.30
2023-02-26T12:24:27.830Z,3.70
2023-02-26T12:27:08.051Z,5.70
2023-02-26T12:30:10.824Z,8.20
2023-02-26T12:33:06.502Z,6.50
2023-02-26T12:35:53.140Z,4.40
2023-02-26T12:38:43.102Z,3.70
2023-02-26T12:41:40.968Z,3.20
2023-02-26T12:44:32.555Z,2.60
2023-02-26T12:47:26.727Z,3.70
2023-02-26T12:50:14.122Z,3.90
2023-02-26T12:53:11.966Z,1.80
2023-02-26T12:56:01.684Z,2.00
2023-02-26T12:58:57.391Z,2.50
2023-02-26T13:02:01.790Z,2.00
2023-02-26T13:05:02.865Z,1.70
2023-02-26T13:08:03.453Z,2.20
2023-02-26T13:10:56.064Z,2.00
2023-02-26T13:13:47.275Z,1.90
2023-02-26T13:16:35.682Z,4.30
2023-02-26T13:19:22.574Z,2.50
2023-02-26T13:22:02.000Z,2.40
2023-02-26T13:24:45.468Z,2.10
2023-02-26T13:27:26.832Z,1.70
2023-02-26T13:30:21.889Z,2.20
2023-02-26T13:33:09.393Z,15.90
2023-02-26T13:35:48.311Z,9.80
2023-02-26T13:38:33.513Z,3.60
2023-02-26T13:41:18.287Z,2.30
2023-02-26T13:44:10.189Z,1.80
2023-02-26T13:47:01.384Z,1.50
2023-02-26T13:49:51.573Z,1.80
2023-02-26T13:52:33.993Z,1.60
2023-02-26T13:55:38.675Z,1.90
2023-02-26T13:58:37.972Z,2.30
2023-02-26T14:01:17.391Z,2.60
2023-02-26T14:03:56.282Z,2.80
2023-02-26T14:06:49.052Z,2.10
2023-02-26T14:09:47.552Z,2.90
2023-02-26T14:12:39.330Z,2.50
2023-02-26T14:15:39.655Z,2.20
2023-02-26T14:18:32.789Z,2.10
2023-02-26T14:21:41.498Z,1.60
2023-02-26T14:24:33.027Z,1.80
2023-02-26T14:27:41.630Z,1.70
2023-02-26T14:30:36.569Z,1.80
2023-02-26T14:33:31.281Z,7.10
2023-02-26T14:36:08.359Z,1.80
2023-02-26T14:38:45.532Z,1.90
2023-02-26T14:41:33.456Z,2.00
2023-02-26T14:46:47.727Z,2.20
2023-02-26T14:49:31.633Z,1.90
2023-02-26T14:52:39.631Z,2.80
2023-02-26T14:55:36.242Z,2.10
2023-02-26T14:58:28.895Z,1.60
2023-02-26T15:01:25.635Z,1.60
2023-02-26T15:04:28.812Z,1.80
2023-02-26T15:07:41.330Z,1.70
2023-02-26T15:10:42.492Z,2.10
2023-02-26T15:13:43.404Z,1.70
2023-02-26T15:16:31.984Z,2.30
2023-02-26T15:19:24.417Z,1.90
2023-02-26T15:22:20.039Z,2.00
2023-02-26T15:24:56.376Z,2.50
2023-02-26T15:27:35.683Z,2.50
2023-02-26T15:30:16.499Z,2.90
2023-02-26T15:32:59.781Z,6.10
2023-02-26T15:35:37.946Z,5.00
2023-02-26T15:38:24.118Z,7.10
2023-02-26T15:41:08.736Z,5.20
2023-02-26T15:43:49.446Z,5.90
2023-02-26T15:46:29.790Z,4.40
2023-02-26T15:49:12.840Z,3.70
2023-02-26T15:51:50.062Z,3.30
2023-02-26T15:54:27.690Z,4.00
2023-02-26T15:57:06.743Z,3.70
2023-02-26T15:59:51.698Z,5.40
2023-02-26T16:02:29.573Z,7.10
2023-02-26T16:05:06.705Z,7.80
2023-02-26T16:07:43.203Z,6.10
2023-02-26T16:10:35.657Z,5.50
2023-02-26T16:13:18.564Z,6.10
2023-02-26T16:15:54.813Z,5.90
2023-02-26T16:18:34.058Z,6.10
2023-02-26T16:21:28.868Z,5.30
2023-02-26T16:24:07.990Z,4.90
2023-02-26T16:26:51.335Z,4.40
2023-02-26T16:29:30.902Z,6.40
2023-02-26T16:32:17.369Z,6.50
2023-02-26T16:34:58.352Z,6.70
2023-02-26T16:37:39.391Z,7.60
2023-02-26T16:40:27.650Z,7.70
2023-02-26T16:43:10.820Z,8.60
2023-02-26T16:46:01.533Z,8.60
2023-02-26T16:51:44.483Z,8.20
2023-02-26T16:54:28.209Z,9.80
2023-02-26T16:57:09.662Z,8.50
2023-02-26T16:59:52.813Z,10.70
2023-02-26T17:02:31.984Z,9.70
2023-02-26T17:05:11.861Z,10.40
2023-02-26T17:07:59.438Z,11.50
2023-02-26T17:10:48.434Z,9.90
2023-02-26T17:13:30.490Z,8.40
2023-02-26T17:16:09.210Z,8.80
2023-02-26T17:18:46.515Z,8.50
2023-02-26T17:21:22.935Z,8.80
2023-02-26T17:24:03.612Z,9.50
2023-02-26T17:26:41.663Z,10.30
2023-02-26T17:29:24.819Z,10.00
2023-02-26T17:32:03.312Z,10.00
2023-02-26T17:34:44.109Z,10.90
2023-02-26T17:37:22.718Z,10.50
2023-02-26T17:40:00.788Z,10.50
2023-02-26T17:42:37.408Z,11.90
2023-02-26T17:45:15.368Z,11.60
2023-02-26T17:47:51.907Z,12.10
2023-02-26T17:50:37.530Z,18.20
2023-02-26T17:53:14.743Z,19.50
2023-02-26T17:56:00.294Z,20.90
2023-02-26T17:58:37.955Z,15.50
2023-02-26T18:01:15.087Z,14.80
2023-02-26T18:06:41.074Z,14.60
2023-02-26T18:09:21.343Z,13.20
2023-02-26T18:12:02.944Z,14.80
2023-02-26T18:14:50.188Z,17.00
2023-02-26T18:17:41.473Z,15.10
2023-02-26T18:20:22.768Z,19.30
2023-02-26T18:22:59.700Z,17.30
2023-02-26T18:25:37.715Z,17.00
2023-02-26T18:28:23.027Z,13.90
2023-02-26T18:31:00.938Z,13.10
2023-02-26T18:33:39.032Z,10.10
2023-02-26T18:36:21.596Z,11.30
2023-02-26T18:39:03.216Z,10.20
2023-02-26T18:41:40.540Z,8.60
2023-02-26T18:44:20.039Z,8.70
2023-02-26T18:46:57.877Z,7.40
2023-02-26T18:49:35.515Z,8.50
2023-02-26T18:52:15.120Z,7.80
2023-02-26T18:54:57.691Z,6.90
2023-02-26T18:57:33.537Z,7.40
2023-02-26T19:00:15.009Z,6.40
2023-02-26T19:02:56.965Z,6.20
2023-02-26T19:05:41.466Z,5.90
2023-02-26T19:08:19.957Z,6.20
2023-02-26T19:10:56.776Z,5.80
2023-02-26T19:13:34.603Z,5.00
2023-02-26T19:16:15.710Z,4.10
2023-02-26T19:18:51.748Z,4.20
2023-02-26T19:21:35.255Z,4.10
2023-02-26T19:24:23.828Z,4.20
2023-02-26T19:27:01.288Z,4.30
2023-02-26T19:29:40.629Z,4.60
2023-02-26T19:32:19.976Z,3.90
2023-02-26T19:34:57.840Z,3.60
2023-02-26T19:37:34.947Z,4.20
2023-02-26T19:40:19.062Z,3.40
2023-02-26T19:43:00.841Z,3.10
2023-02-26T19:45:39.367Z,3.50
2023-02-26T19:48:21.004Z,3.30
2023-02-26T19:51:00.735Z,3.60
2023-02-26T19:53:37.210Z,3.40
2023-02-26T19:56:15.132Z,2.30
2023-02-26T19:58:52.398Z,2.00
2023-02-26T20:01:31.826Z,2.50
2023-02-26T20:04:14.831Z,2.20
2023-02-26T20:06:51.957Z,2.30
2023-02-26T20:09:28.856Z,2.80
2023-02-26T20:12:09.333Z,2.90
2023-02-26T20:14:46.376Z,3.20
2023-02-26T20:17:25.216Z,3.60
2023-02-26T20:20:03.729Z,5.70
2023-02-26T20:25:18.334Z,5.00
2023-02-26T20:27:54.665Z,6.70
2023-02-26T20:30:32.804Z,5.20
2023-02-26T20:33:13.230Z,3.00
2023-02-26T20:35:50.808Z,2.80
2023-02-26T20:38:32.387Z,2.30
2023-02-26T20:41:14.650Z,2.10
2023-02-26T20:43:52.008Z,3.10
2023-02-26T20:46:27.699Z,2.60
2023-02-26T20:49:06.404Z,3.20
2023-02-26T20:51:44.194Z,2.60
2023-02-26T20:54:23.271Z,2.50
2023-02-26T20:56:58.606Z,2.30
2023-02-26T20:59:34.897Z,3.50
2023-02-26T21:02:14.856Z,4.10
2023-02-26T21:04:51.405Z,3.80
2023-02-26T21:07:28.966Z,3.70
2023-02-26T21:10:06.238Z,3.60
2023-02-26T21:12:54.982Z,4.00
2023-02-26T21:15:34.038Z,4.20
2023-02-26T21:18:14.436Z,4.00
2023-02-26T21:20:57.078Z,4.70
2023-02-26T21:23:32.733Z,5.10
2023-02-26T21:26:09.795Z,4.70
2023-02-26T21:28:54.568Z,5.10
2023-02-26T21:31:31.391Z,4.10
2023-02-26T21:34:32.614Z,4.10
2023-02-26T21:37:07.044Z,3.70
2023-02-26T21:39:43.547Z,4.70
2023-02-26T21:42:18.379Z,4.10
2023-02-26T21:44:52.608Z,3.60
2023-02-26T21:47:28.562Z,4.40
2023-02-26T21:50:03.849Z,5.30
2023-02-26T21:52:38.252Z,4.90
2023-02-26T21:55:13.232Z,5.10
2023-02-26T21:57:47.321Z,4.60
2023-02-26T22:00:23.834Z,5.00
2023-02-26T22:02:57.794Z,4.60
2023-02-26T22:05:31.715Z,5.80
2023-02-26T22:08:05.929Z,6.00
2023-02-26T22:10:39.885Z,5.70
2023-02-26T22:13:14.330Z,5.90
2023-02-26T22:15:48.420Z,6.30
2023-02-26T22:18:22.176Z,5.60
2023-02-26T22:20:55.921Z,5.40
2023-02-26T22:23:29.895Z,4.90
2023-02-26T22:26:03.251Z,4.70
2023-02-26T22:28:36.997Z,5.50
2023-02-26T22:31:10.785Z,4.70
2023-02-26T22:33:44.590Z,5.00
2023-02-26T22:36:18.076Z,5.10
2023-02-26T22:38:51.903Z,5.40
2023-02-26T22:41:25.494Z,5.30
2023-02-26T22:43:58.957Z,5.00
2023-02-26T22:46:33.116Z,5.00
2023-02-26T22:49:07.230Z,5.90
2023-02-26T22:51:41.111Z,5.30
2023-02-26T22:54:14.933Z,5.50
2023-02-26T22:56:48.681Z,5.50
2023-02-26T22:59:22.510Z,5.30
2023-02-26T23:01:56.030Z,5.80
2023-02-26T23:04:29.908Z,5.40
2023-02-26T23:07:03.327Z,4.40
2023-02-26T23:09:37.651Z,5.30
2023-02-26T23:12:11.564Z,5.00
2023-02-26T23:14:45.561Z,4.90
2023-02-26T23:17:19.287Z,5.60
2023-02-26T23:19:53.277Z,5.90
2023-02-26T23:22:27.402Z,5.80
2023-02-26T23:25:01.268Z,5.40
2023-02-26T23:27:35.698Z,5.50
2023-02-26T23:30:11.247Z,6.00
2023-02-26T23:32:45.343Z,4.60
2023-02-26T23:35:19.355Z,4.00
2023-02-26T23:37:53.076Z,3.50
2023-02-26T23:40:26.716Z,3.80
2023-02-26T23:43:00.445Z,3.60
2023-02-26T23:45:33.946Z,4.00
2023-02-26T23:48:08.060Z,4.10
2023-02-26T23:50:42.340Z,4.10
2023-02-26T23:53:16.179Z,4.10
2023-02-26T23:55:52.186Z,4.50
2023-02-26T23:58:26.191Z,3.60
